Thunder radar more information blitzortung!


Radar de pluja more information rain snow radar


Visita la nostra xarxa de llocs de meteo:

Template documentation
and downloads

And another site



No particular awareness of the weather is required.    There are no Weather-warnings

Pagina Historial Weather Underground text

Diari Resum Juliol 23, 2017 Unitats:  Tant    Imperial   Mètric
« Previous Dia
SegĂźent Dia »
Diari Setmana Mensual Anual Personalitzada
  Maxima: Minima: Media:
Temperatura: 83.7 °F /  28.7 °C 63.1 °F /  17.3 °C 74.1 °F /  23.4 °C
Punt de rosada: 68.2 °F /  20.1 °C 58.6 °F /  14.8 °C 63.7 °F /  17.6 °C
Humitat: 94 % 50 % 72 %
Wind Speed: 23 mph /  37.0 km/h - 3.9 mph /  6.3 km/h
RĂ fegues de vent: 23 mph /  37.0 km/h - -
Vent:- - SE
Pression baro: 30.1 in /  1017.8 hPa 29.9 in /  1012.8 hPa -
Precipitacions: 0.21 in /  5.3 mm    
Historical Graphs
 
 
Dades de taula per Juliol 23, 2017
Temps Temperatura Punt de rosada Pression baro Vent Wind Speed RĂ fegues de vent Humitat Rainfall Rate (Hourly)
00:00 72.5 °F /  22.5 °C 64.9 °F /  18.3 °C 30 in /  1015.8 hPa NNE 1 mph /  1.6 km/h 1 mph /  1.6 km/h 77 % 0 in /  0.0 mm
00:02 75.6 °F /  24.2 °C 64.2 °F /  17.9 °C 30 in /  1014.8 hPa WSW 1.2 mph /  1.9 km/h   68 % 0 in /  0.0 mm
00:10 72.5 °F /  22.5 °C 64.9 °F /  18.3 °C 30 in /  1015.8 hPa Calm   2 mph /  3.2 km/h 77 % 0 in /  0.0 mm
00:20 72.5 °F /  22.5 °C 64.9 °F /  18.3 °C 30 in /  1015.8 hPa Calm   1 mph /  1.6 km/h 77 % 0 in /  0.0 mm
00:30 72.5 °F /  22.5 °C 65.1 °F /  18.4 °C 30 in /  1015.8 hPa NE 1 mph /  1.6 km/h 1 mph /  1.6 km/h 78 % 0 in /  0.0 mm
00:40 72.3 °F /  22.4 °C 65.1 °F /  18.4 °C 30 in /  1015.8 hPa NE 1 mph /  1.6 km/h 3 mph /  4.8 km/h 78 % 0 in /  0.0 mm
00:50 72.3 °F /  22.4 °C 65.1 °F /  18.4 °C 30 in /  1015.8 hPa NE 1 mph /  1.6 km/h 2 mph /  3.2 km/h 78 % 0 in /  0.0 mm
01:00 72.5 °F /  22.5 °C 65.1 °F /  18.4 °C 30 in /  1015.8 hPa NE 2 mph /  3.2 km/h 3 mph /  4.8 km/h 78 % 0 in /  0.0 mm
01:10 72.5 °F /  22.5 °C 65.1 °F /  18.4 °C 30 in /  1016.8 hPa NE 2 mph /  3.2 km/h 3 mph /  4.8 km/h 78 % 0 in /  0.0 mm
01:20 72.5 °F /  22.5 °C 65.7 °F /  18.7 °C 30 in /  1016.8 hPa NE 1 mph /  1.6 km/h 2 mph /  3.2 km/h 79 % 0 in /  0.0 mm
01:30 72.3 °F /  22.4 °C 65.5 °F /  18.6 °C 30 in /  1016.8 hPa NE 2 mph /  3.2 km/h 3 mph /  4.8 km/h 79 % 0 in /  0.0 mm
01:40 72.3 °F /  22.4 °C 65.5 °F /  18.6 °C 30 in /  1016.8 hPa NNE 3 mph /  4.8 km/h 4 mph /  6.4 km/h 79 % 0 in /  0.0 mm
01:50 72.5 °F /  22.5 °C 65.7 °F /  18.7 °C 30 in /  1016.8 hPa NNE 3 mph /  4.8 km/h 4 mph /  6.4 km/h 79 % 0 in /  0.0 mm
02:00 72.5 °F /  22.5 °C 66 °F /  18.9 °C 30 in /  1016.8 hPa NE 3 mph /  4.8 km/h 4 mph /  6.4 km/h 80 % 0 in /  0.0 mm
02:10 72.7 °F /  22.6 °C 66.2 °F /  19.0 °C 30 in /  1016.8 hPa NNE 1 mph /  1.6 km/h 3 mph /  4.8 km/h 80 % 0 in /  0.0 mm
02:20 72.7 °F /  22.6 °C 66.2 °F /  19.0 °C 30 in /  1016.8 hPa Calm   3 mph /  4.8 km/h 80 % 0 in /  0.0 mm
02:30 72.9 °F /  22.7 °C 66.4 °F /  19.1 °C 30.1 in /  1017.8 hPa Calm   1 mph /  1.6 km/h 80 % 0 in /  0.0 mm
02:40 73 °F /  22.8 °C 66.6 °F /  19.2 °C 30.1 in /  1017.8 hPa NE 2 mph /  3.2 km/h 2 mph /  3.2 km/h 80 % 0 in /  0.0 mm
02:50 73.4 °F /  23.0 °C 66.6 °F /  19.2 °C 30.1 in /  1017.8 hPa NE 1 mph /  1.6 km/h 3 mph /  4.8 km/h 79 % 0 in /  0.0 mm
03:00 73.8 °F /  23.2 °C 66.6 °F /  19.2 °C 30.1 in /  1017.8 hPa NE 2 mph /  3.2 km/h 2 mph /  3.2 km/h 78 % 0 in /  0.0 mm
03:10 74.7 °F /  23.7 °C 67.3 °F /  19.6 °C 30.1 in /  1017.8 hPa NE 1 mph /  1.6 km/h 2 mph /  3.2 km/h 78 % 0 in /  0.0 mm
03:20 75 °F /  23.9 °C 67.3 °F /  19.6 °C 30.1 in /  1017.8 hPa NE 2 mph /  3.2 km/h 3 mph /  4.8 km/h 77 % 0 in /  0.0 mm
03:30 75.9 °F /  24.4 °C 67.8 °F /  19.9 °C 30.1 in /  1017.8 hPa NE 2 mph /  3.2 km/h 3 mph /  4.8 km/h 76 % 0 in /  0.0 mm
03:40 76.6 °F /  24.8 °C 68.2 °F /  20.1 °C 30.1 in /  1017.8 hPa NE 2 mph /  3.2 km/h 3 mph /  4.8 km/h 75 % 0 in /  0.0 mm
03:50 76.5 °F /  24.7 °C 67.6 °F /  19.8 °C 30.1 in /  1017.8 hPa NE 3 mph /  4.8 km/h 4 mph /  6.4 km/h 74 % 0 in /  0.0 mm
04:00 77.2 °F /  25.1 °C 67.5 °F /  19.7 °C 30.1 in /  1017.8 hPa NE 2 mph /  3.2 km/h 3 mph /  4.8 km/h 72 % 0 in /  0.0 mm
04:10 77.7 °F /  25.4 °C 67.3 °F /  19.6 °C 30.1 in /  1017.8 hPa East 2 mph /  3.2 km/h 3 mph /  4.8 km/h 70 % 0 in /  0.0 mm
04:20 77.4 °F /  25.2 °C 66.7 °F /  19.3 °C 30.1 in /  1017.8 hPa ESE 2 mph /  3.2 km/h 4 mph /  6.4 km/h 70 % 0 in /  0.0 mm
04:30 77.4 °F /  25.2 °C 66.7 °F /  19.3 °C 30.1 in /  1017.8 hPa SE 1 mph /  1.6 km/h 2 mph /  3.2 km/h 70 % 0 in /  0.0 mm
04:40 77.5 °F /  25.3 °C 66.9 °F /  19.4 °C 30.1 in /  1017.8 hPa South 2 mph /  3.2 km/h 2 mph /  3.2 km/h 70 % 0 in /  0.0 mm
04:50 78.3 °F /  25.7 °C 67.6 °F /  19.8 °C 30.1 in /  1017.8 hPa ESE 1 mph /  1.6 km/h 2 mph /  3.2 km/h 70 % 0 in /  0.0 mm
05:00 78.3 °F /  25.7 °C 67.3 °F /  19.6 °C 30.1 in /  1017.8 hPa ENE 1 mph /  1.6 km/h 2 mph /  3.2 km/h 69 % 0 in /  0.0 mm
05:10 78.4 °F /  25.8 °C 67.5 °F /  19.7 °C 30.1 in /  1017.8 hPa NE 2 mph /  3.2 km/h 2 mph /  3.2 km/h 69 % 0 in /  0.0 mm
05:20 78.3 °F /  25.7 °C 67.3 °F /  19.6 °C 30.1 in /  1017.8 hPa East 1 mph /  1.6 km/h 2 mph /  3.2 km/h 69 % 0 in /  0.0 mm
05:30 78.6 °F /  25.9 °C 67.3 °F /  19.6 °C 30.1 in /  1017.8 hPa ESE 1 mph /  1.6 km/h 2 mph /  3.2 km/h 68 % 0 in /  0.0 mm
05:40 78.3 °F /  25.7 °C 66.4 °F /  19.1 °C 30.1 in /  1017.8 hPa East 1 mph /  1.6 km/h 4 mph /  6.4 km/h 67 % 0 in /  0.0 mm
05:50 78.4 °F /  25.8 °C 66 °F /  18.9 °C 30.1 in /  1017.8 hPa NE 2 mph /  3.2 km/h 3 mph /  4.8 km/h 66 % 0 in /  0.0 mm
05:55 78.8 °F /  26.0 °C 66.9 °F /  19.4 °C 30.1 in /  1017.8 hPa ENE 1 mph /  1.6 km/h 2 mph /  3.2 km/h 67 % 0 in /  0.0 mm
10:56 78.8 °F /  26.0 °C 66 °F /  18.9 °C 30.1 in /  1017.8 hPa ESE 3.5 mph /  5.6 km/h 3.5 mph /  5.6 km/h 65 % 0 in /  0.0 mm
11:01 78.8 °F /  26.0 °C 66 °F /  18.9 °C 30.1 in /  1017.8 hPa ESE 6.9 mph /  11.1 km/h 6.9 mph /  11.1 km/h 65 % 0 in /  0.0 mm
11:06 78.8 °F /  26.0 °C 65.7 °F /  18.7 °C 30.1 in /  1017.8 hPa ESE 3.6 mph /  5.8 km/h 3.6 mph /  5.8 km/h 64 % 0 in /  0.0 mm
11:11 78.8 °F /  26.0 °C 66.6 °F /  19.2 °C 30.1 in /  1017.8 hPa SSW 6.9 mph /  11.1 km/h 6.9 mph /  11.1 km/h 66 % 0 in /  0.0 mm
11:16 79.2 °F /  26.2 °C 66.7 °F /  19.3 °C 30.1 in /  1017.8 hPa South 3.5 mph /  5.6 km/h 3.5 mph /  5.6 km/h 66 % 0 in /  0.0 mm
11:21 79.5 °F /  26.4 °C 67.3 °F /  19.6 °C 30.1 in /  1017.8 hPa SSW 3.5 mph /  5.6 km/h 3.5 mph /  5.6 km/h 66 % 0 in /  0.0 mm
11:26 79.5 °F /  26.4 °C 67.3 °F /  19.6 °C 30.1 in /  1017.8 hPa WSW 3.5 mph /  5.6 km/h 3.5 mph /  5.6 km/h 66 % 0 in /  0.0 mm
11:31 79.9 °F /  26.6 °C 67.1 °F /  19.5 °C 30.1 in /  1017.8 hPa SW 3.6 mph /  5.8 km/h 3.6 mph /  5.8 km/h 65 % 0 in /  0.0 mm
11:36 80.2 °F /  26.8 °C 67.5 °F /  19.7 °C 30.1 in /  1017.8 hPa SW 1.2 mph /  1.9 km/h 1.4 mph /  2.3 km/h 65 % 0 in /  0.0 mm
11:41 80.6 °F /  27.0 °C 67.3 °F /  19.6 °C 30.1 in /  1017.8 hPa SW 2.3 mph /  3.7 km/h   64 % 0 in /  0.0 mm
11:42 80.6 °F /  27.0 °C 67.3 °F /  19.6 °C 30.1 in /  1017.8 hPa SW 1.2 mph /  1.9 km/h   64 % 0 in /  0.0 mm
11:46 80.6 °F /  27.0 °C 66.7 °F /  19.3 °C 30.1 in /  1017.8 hPa ESE 3.5 mph /  5.6 km/h 3.5 mph /  5.6 km/h 63 % 0 in /  0.0 mm
11:51 80.6 °F /  27.0 °C 66.4 °F /  19.1 °C 30.1 in /  1017.8 hPa SE 4.6 mph /  7.4 km/h 4.6 mph /  7.4 km/h 62 % 0 in /  0.0 mm
11:56 80.2 °F /  26.8 °C 66 °F /  18.9 °C 30.1 in /  1017.8 hPa South 3.5 mph /  5.6 km/h 3.5 mph /  5.6 km/h 62 % 0 in /  0.0 mm
12:02 80.2 °F /  26.8 °C 65.7 °F /  18.7 °C 30.1 in /  1017.8 hPa South 5.8 mph /  9.3 km/h 5.8 mph /  9.3 km/h 61 % 0 in /  0.0 mm
12:07 81 °F /  27.2 °C 65.8 °F /  18.8 °C 30.1 in /  1017.8 hPa ESE 2.3 mph /  3.7 km/h 2.3 mph /  3.7 km/h 60 % 0 in /  0.0 mm
12:12 81 °F /  27.2 °C 65.8 °F /  18.8 °C 30.1 in /  1017.8 hPa South 3.5 mph /  5.6 km/h 3.5 mph /  5.6 km/h 60 % 0 in /  0.0 mm
12:17 81.3 °F /  27.4 °C 66 °F /  18.9 °C 30.1 in /  1017.8 hPa Calm   1.4 mph /  2.3 km/h 60 % 0 in /  0.0 mm
12:22 81 °F /  27.2 °C 65.3 °F /  18.5 °C 30.1 in /  1017.8 hPa SSE 5.8 mph /  9.3 km/h 5.8 mph /  9.3 km/h 59 % 0 in /  0.0 mm
12:27 81 °F /  27.2 °C 65.3 °F /  18.5 °C 30.1 in /  1017.8 hPa ESE 5.4 mph /  8.7 km/h 5.4 mph /  8.7 km/h 59 % 0 in /  0.0 mm
12:32 81.3 °F /  27.4 °C 65.7 °F /  18.7 °C 30.1 in /  1017.8 hPa South 4.6 mph /  7.4 km/h 4.6 mph /  7.4 km/h 59 % 0 in /  0.0 mm
12:37 81.3 °F /  27.4 °C 65.7 °F /  18.7 °C 30.1 in /  1017.8 hPa SSE 3.5 mph /  5.6 km/h 3.5 mph /  5.6 km/h 59 % 0 in /  0.0 mm
12:42 82.2 °F /  27.9 °C 66.6 °F /  19.2 °C 30.1 in /  1017.8 hPa SSE 2.3 mph /  3.7 km/h 2.4 mph /  3.9 km/h 59 % 0 in /  0.0 mm
12:47 82.2 °F /  27.9 °C 66.6 °F /  19.2 °C 30.1 in /  1017.8 hPa ENE 5.8 mph /  9.3 km/h 5.8 mph /  9.3 km/h 59 % 0 in /  0.0 mm
12:52 81.7 °F /  27.6 °C 66 °F /  18.9 °C 30.1 in /  1017.8 hPa East 4.6 mph /  7.4 km/h 4.6 mph /  7.4 km/h 59 % 0 in /  0.0 mm
12:57 82.2 °F /  27.9 °C 66 °F /  18.9 °C 30.1 in /  1017.8 hPa East 10.4 mph /  16.7 km/h 10.4 mph /  16.7 km/h 58 % 0 in /  0.0 mm
13:02 81.9 °F /  27.7 °C 65.7 °F /  18.7 °C 30.1 in /  1017.8 hPa East 4.6 mph /  7.4 km/h 4.6 mph /  7.4 km/h 58 % 0 in /  0.0 mm
13:07 81.7 °F /  27.6 °C 64.9 °F /  18.3 °C 30.1 in /  1017.8 hPa SE 5.8 mph /  9.3 km/h 5.8 mph /  9.3 km/h 57 % 0 in /  0.0 mm
13:12 81.3 °F /  27.4 °C 64.6 °F /  18.1 °C 30.1 in /  1017.8 hPa ESE 4.7 mph /  7.6 km/h 5.6 mph /  9.0 km/h 57 % 0 in /  0.0 mm
13:17 81.5 °F /  27.5 °C 64.8 °F /  18.2 °C 30.1 in /  1017.8 hPa East 8.1 mph /  13.0 km/h 8.1 mph /  13.0 km/h 57 % 0 in /  0.0 mm
13:22 81.7 °F /  27.6 °C 64.6 °F /  18.1 °C 30.1 in /  1017.8 hPa ESE 8.1 mph /  13.0 km/h 8.1 mph /  13.0 km/h 56 % 0 in /  0.0 mm
13:27 81 °F /  27.2 °C 63.3 °F /  17.4 °C 30.1 in /  1017.8 hPa ENE 9.2 mph /  14.8 km/h 9.2 mph /  14.8 km/h 55 % 0 in /  0.0 mm
13:32 81.1 °F /  27.3 °C 64 °F /  17.8 °C 30.1 in /  1017.8 hPa NNE 4.6 mph /  7.4 km/h 4.9 mph /  7.9 km/h 56 % 0 in /  0.0 mm
13:37 80.6 °F /  27.0 °C 62.4 °F /  16.9 °C 30 in /  1016.8 hPa East 10.4 mph /  16.7 km/h 10.4 mph /  16.7 km/h 54 % 0 in /  0.0 mm
13:42 81.1 °F /  27.3 °C 63 °F /  17.2 °C 30 in /  1016.8 hPa South 5.8 mph /  9.3 km/h 5.8 mph /  9.3 km/h 54 % 0 in /  0.0 mm
13:47 81 °F /  27.2 °C 62.8 °F /  17.1 °C 30 in /  1016.8 hPa SE 8.1 mph /  13.0 km/h 8.1 mph /  13.0 km/h 54 % 0 in /  0.0 mm
13:52 80.6 °F /  27.0 °C 62.4 °F /  16.9 °C 30 in /  1016.8 hPa ESE 9.2 mph /  14.8 km/h 9.2 mph /  14.8 km/h 54 % 0 in /  0.0 mm
13:57 80.6 °F /  27.0 °C 62.4 °F /  16.9 °C 30 in /  1016.8 hPa ESE 5.8 mph /  9.3 km/h 5.8 mph /  9.3 km/h 54 % 0 in /  0.0 mm
14:02 80.8 °F /  27.1 °C 62.6 °F /  17.0 °C 30 in /  1016.8 hPa ESE 8.1 mph /  13.0 km/h 8.1 mph /  13.0 km/h 54 % 0 in /  0.0 mm
14:07 80.6 °F /  27.0 °C 61.9 °F /  16.6 °C 30 in /  1015.8 hPa ESE 6.9 mph /  11.1 km/h 6.9 mph /  11.1 km/h 53 % 0 in /  0.0 mm
14:12 81.1 °F /  27.3 °C 63 °F /  17.2 °C 30 in /  1015.8 hPa ENE 6.9 mph /  11.1 km/h 6.9 mph /  11.1 km/h 54 % 0 in /  0.0 mm
14:17 81.1 °F /  27.3 °C 62.4 °F /  16.9 °C 30 in /  1015.8 hPa ENE 7.8 mph /  12.6 km/h 7.8 mph /  12.6 km/h 53 % 0 in /  0.0 mm
14:22 81.3 °F /  27.4 °C 62.6 °F /  17.0 °C 30 in /  1014.8 hPa East 5.8 mph /  9.3 km/h 5.8 mph /  9.3 km/h 53 % 0 in /  0.0 mm
14:27 81.3 °F /  27.4 °C 62.6 °F /  17.0 °C 30 in /  1014.8 hPa ESE 8.1 mph /  13.0 km/h 8.1 mph /  13.0 km/h 53 % 0 in /  0.0 mm
14:32 81.9 °F /  27.7 °C 63.1 °F /  17.3 °C 30 in /  1014.8 hPa SE 4.6 mph /  7.4 km/h 4.6 mph /  7.4 km/h 53 % 0 in /  0.0 mm
14:37 82.4 °F /  28.0 °C 63.5 °F /  17.5 °C 30 in /  1016.8 hPa ESE 5.8 mph /  9.3 km/h 5.8 mph /  9.3 km/h 53 % 0 in /  0.0 mm
14:42 82 °F /  27.8 °C 62.8 °F /  17.1 °C 30 in /  1016.8 hPa ENE 5.8 mph /  9.3 km/h 5.8 mph /  9.3 km/h 52 % 0 in /  0.0 mm
14:47 82.2 °F /  27.9 °C 62.8 °F /  17.1 °C 30 in /  1016.8 hPa ESE 6 mph /  9.7 km/h 6 mph /  9.7 km/h 52 % 0 in /  0.0 mm
14:52 82 °F /  27.8 °C 62.8 °F /  17.1 °C 30 in /  1015.8 hPa South 6.9 mph /  11.1 km/h 6.9 mph /  11.1 km/h 52 % 0 in /  0.0 mm
14:57 82 °F /  27.8 °C 62.1 °F /  16.7 °C 30 in /  1015.8 hPa ESE 10.5 mph /  16.9 km/h 10.5 mph /  16.9 km/h 51 % 0 in /  0.0 mm
15:02 83.3 °F /  28.5 °C 63.9 °F /  17.7 °C 30 in /  1015.8 hPa SE 5.8 mph /  9.3 km/h 5.8 mph /  9.3 km/h 52 % 0 in /  0.0 mm
15:07 83.5 °F /  28.6 °C 63 °F /  17.2 °C 30 in /  1015.8 hPa ENE 6.9 mph /  11.1 km/h 6.9 mph /  11.1 km/h 50 % 0 in /  0.0 mm
15:12 83.1 °F /  28.4 °C 62.6 °F /  17.0 °C 30 in /  1015.8 hPa East 9.2 mph /  14.8 km/h 9.2 mph /  14.8 km/h 50 % 0 in /  0.0 mm
15:17 82.4 °F /  28.0 °C 61.9 °F /  16.6 °C 30 in /  1015.8 hPa South 9.2 mph /  14.8 km/h 9.2 mph /  14.8 km/h 50 % 0 in /  0.0 mm
15:22 83.7 °F /  28.7 °C 63 °F /  17.2 °C 30 in /  1015.8 hPa SE 11.5 mph /  18.5 km/h 11.5 mph /  18.5 km/h 50 % 0 in /  0.0 mm
15:27 82.9 °F /  28.3 °C 62.4 °F /  16.9 °C 30 in /  1015.8 hPa ESE 8.1 mph /  13.0 km/h 8.1 mph /  13.0 km/h 50 % 0 in /  0.0 mm
15:32 83.1 °F /  28.4 °C 62.6 °F /  17.0 °C 30 in /  1015.8 hPa SE 8.1 mph /  13.0 km/h 8.1 mph /  13.0 km/h 50 % 0 in /  0.0 mm
15:37 82.6 °F /  28.1 °C 62.1 °F /  16.7 °C 30 in /  1014.8 hPa ENE 11.5 mph /  18.5 km/h 11.5 mph /  18.5 km/h 50 % 0 in /  0.0 mm
15:42 82.2 °F /  27.9 °C 61.7 °F /  16.5 °C 30 in /  1014.8 hPa East 10.4 mph /  16.7 km/h 10.4 mph /  16.7 km/h 50 % 0 in /  0.0 mm
15:47 82 °F /  27.8 °C 62.1 °F /  16.7 °C 30 in /  1014.8 hPa NE 9.2 mph /  14.8 km/h 9.2 mph /  14.8 km/h 51 % 0 in /  0.0 mm
15:52 82.8 °F /  28.2 °C 62.8 °F /  17.1 °C 30 in /  1014.8 hPa South 5.8 mph /  9.3 km/h 5.8 mph /  9.3 km/h 51 % 0 in /  0.0 mm
15:57 82.8 °F /  28.2 °C 62.8 °F /  17.1 °C 30 in /  1014.8 hPa SW 4.6 mph /  7.4 km/h 4.6 mph /  7.4 km/h 51 % 0 in /  0.0 mm
16:02 82.4 °F /  28.0 °C 62.4 °F /  16.9 °C 30 in /  1014.8 hPa ESE 5.8 mph /  9.3 km/h 5.8 mph /  9.3 km/h 51 % 0 in /  0.0 mm
16:07 82.6 °F /  28.1 °C 62.6 °F /  17.0 °C 30 in /  1014.8 hPa SSE 7.1 mph /  11.4 km/h 7.1 mph /  11.4 km/h 51 % 0 in /  0.0 mm
16:12 82.8 °F /  28.2 °C 62.8 °F /  17.1 °C 30 in /  1014.8 hPa ESE 4.6 mph /  7.4 km/h 4.6 mph /  7.4 km/h 51 % 0 in /  0.0 mm
16:17 82.4 °F /  28.0 °C 62.4 °F /  16.9 °C 30 in /  1014.8 hPa ESE 3.5 mph /  5.6 km/h 3.5 mph /  5.6 km/h 51 % 0 in /  0.0 mm
16:22 83.1 °F /  28.4 °C 63.1 °F /  17.3 °C 30 in /  1015.8 hPa ESE 3.5 mph /  5.6 km/h 3.5 mph /  5.6 km/h 51 % 0 in /  0.0 mm
16:27 83.5 °F /  28.6 °C 63.3 °F /  17.4 °C 30 in /  1015.8 hPa ESE 5.8 mph /  9.3 km/h 5.8 mph /  9.3 km/h 51 % 0 in /  0.0 mm
16:32 82.6 °F /  28.1 °C 62.6 °F /  17.0 °C 30 in /  1015.8 hPa ESE 10.4 mph /  16.7 km/h 10.4 mph /  16.7 km/h 51 % 0 in /  0.0 mm
16:37 81.7 °F /  27.6 °C 61.9 °F /  16.6 °C 30 in /  1014.8 hPa ESE 9.2 mph /  14.8 km/h 9.2 mph /  14.8 km/h 51 % 0 in /  0.0 mm
16:42 81 °F /  27.2 °C 61.7 °F /  16.5 °C 30 in /  1014.8 hPa ESE 5.9 mph /  9.5 km/h 6.9 mph /  11.1 km/h 52 % 0 in /  0.0 mm
16:47 80.8 °F /  27.1 °C 61.5 °F /  16.4 °C 30 in /  1014.8 hPa SSW 11.5 mph /  18.5 km/h 11.5 mph /  18.5 km/h 52 % 0 in /  0.0 mm
16:52 80.8 °F /  27.1 °C 62.1 °F /  16.7 °C 30 in /  1014.8 hPa SE 7.8 mph /  12.6 km/h 7.8 mph /  12.6 km/h 53 % 0 in /  0.0 mm
16:57 80.1 °F /  26.7 °C 61.9 °F /  16.6 °C 30 in /  1014.8 hPa South 7.4 mph /  11.9 km/h 8.7 mph /  14.0 km/h 54 % 0 in /  0.0 mm
17:02 80.6 °F /  27.0 °C 62.4 °F /  16.9 °C 30 in /  1014.8 hPa SSE 5.8 mph /  9.3 km/h 5.8 mph /  9.3 km/h 54 % 0 in /  0.0 mm
17:07 80.1 °F /  26.7 °C 62.4 °F /  16.9 °C 30 in /  1014.8 hPa SSE 4.6 mph /  7.4 km/h 4.7 mph /  7.6 km/h 55 % 0 in /  0.0 mm
17:12 80.1 °F /  26.7 °C 62.4 °F /  16.9 °C 30 in /  1014.8 hPa ENE 5.8 mph /  9.3 km/h 5.8 mph /  9.3 km/h 55 % 0 in /  0.0 mm
17:17 79.9 °F /  26.6 °C 62.8 °F /  17.1 °C 30 in /  1014.8 hPa ESE 8.7 mph /  14.0 km/h 8.7 mph /  14.0 km/h 56 % 0 in /  0.0 mm
17:22 79.3 °F /  26.3 °C 62.8 °F /  17.1 °C 30 in /  1014.8 hPa ESE 6.4 mph /  10.3 km/h 6.4 mph /  10.3 km/h 57 % 0 in /  0.0 mm
17:27 79.3 °F /  26.3 °C 62.8 °F /  17.1 °C 30 in /  1014.8 hPa NE 5.8 mph /  9.3 km/h 5.8 mph /  9.3 km/h 57 % 0 in /  0.0 mm
17:32 79.9 °F /  26.6 °C 63.3 °F /  17.4 °C 30 in /  1014.8 hPa SE 3.8 mph /  6.1 km/h 4 mph /  6.4 km/h 57 % 0 in /  0.0 mm
17:37 81.1 °F /  27.3 °C 64 °F /  17.8 °C 30 in /  1014.8 hPa SE 3.5 mph /  5.6 km/h 3.5 mph /  5.6 km/h 56 % 0 in /  0.0 mm
17:42 81.3 °F /  27.4 °C 63.7 °F /  17.6 °C 30 in /  1014.8 hPa WSW 8.1 mph /  13.0 km/h 8.1 mph /  13.0 km/h 55 % 0 in /  0.0 mm
17:47 81 °F /  27.2 °C 62.8 °F /  17.1 °C 30 in /  1014.8 hPa SW 8.1 mph /  13.0 km/h 8.1 mph /  13.0 km/h 54 % 0 in /  0.0 mm
17:52 81.3 °F /  27.4 °C 63.1 °F /  17.3 °C 30 in /  1014.8 hPa SSE 8.1 mph /  13.0 km/h 8.1 mph /  13.0 km/h 54 % 0 in /  0.0 mm
17:57 81 °F /  27.2 °C 62.8 °F /  17.1 °C 30 in /  1014.8 hPa West 5.8 mph /  9.3 km/h 5.8 mph /  9.3 km/h 54 % 0 in /  0.0 mm
18:02 80.8 °F /  27.1 °C 62.6 °F /  17.0 °C 30 in /  1014.8 hPa WSW 5.8 mph /  9.3 km/h 5.8 mph /  9.3 km/h 54 % 0 in /  0.0 mm
18:07 80.8 °F /  27.1 °C 63.1 °F /  17.3 °C 30 in /  1014.8 hPa SSW 4.9 mph /  7.9 km/h 4.9 mph /  7.9 km/h 55 % 0 in /  0.0 mm
18:12 80.4 °F /  26.9 °C 63.3 °F /  17.4 °C 30 in /  1014.8 hPa SSW 5.8 mph /  9.3 km/h 5.8 mph /  9.3 km/h 56 % 0 in /  0.0 mm
18:17 80.1 °F /  26.7 °C 63 °F /  17.2 °C 30 in /  1014.8 hPa South 9.2 mph /  14.8 km/h 9.2 mph /  14.8 km/h 56 % 0 in /  0.0 mm
18:22 79.7 °F /  26.5 °C 62.6 °F /  17.0 °C 30 in /  1014.8 hPa South 6.9 mph /  11.1 km/h 6.9 mph /  11.1 km/h 56 % 0 in /  0.0 mm
18:27 79.5 °F /  26.4 °C 62.4 °F /  16.9 °C 30 in /  1014.8 hPa SW 8.1 mph /  13.0 km/h 8.1 mph /  13.0 km/h 56 % 0 in /  0.0 mm
18:32 79.2 °F /  26.2 °C 62.1 °F /  16.7 °C 30 in /  1014.8 hPa SW 8.1 mph /  13.0 km/h 8.1 mph /  13.0 km/h 56 % 0 in /  0.0 mm
18:37 78.6 °F /  25.9 °C 61.5 °F /  16.4 °C 30 in /  1015.8 hPa SW 10 mph /  16.1 km/h 10 mph /  16.1 km/h 56 % 0 in /  0.0 mm
18:42 78.4 °F /  25.8 °C 61.9 °F /  16.6 °C 30 in /  1015.8 hPa SSE 8.1 mph /  13.0 km/h 8.1 mph /  13.0 km/h 57 % 0 in /  0.0 mm
18:47 77.9 °F /  25.5 °C 61.9 °F /  16.6 °C 30 in /  1015.8 hPa WSW 7.8 mph /  12.6 km/h 7.8 mph /  12.6 km/h 58 % 0 in /  0.0 mm
18:52 74.3 °F /  23.5 °C 62.2 °F /  16.8 °C 30 in /  1015.8 hPa SSW 23 mph /  37.0 km/h 23 mph /  37.0 km/h 66 % 0 in /  0.0 mm
18:57 70.2 °F /  21.2 °C 59.9 °F /  15.5 °C 30 in /  1015.8 hPa SSW 9.2 mph /  14.8 km/h 9.2 mph /  14.8 km/h 70 % 0 in /  0.0 mm
19:02 68.7 °F /  20.4 °C 60.1 °F /  15.6 °C 30 in /  1015.8 hPa SW 17.5 mph /  28.2 km/h 17.5 mph /  28.2 km/h 74 % 0.05 in /  1.3 mm
19:07 66.9 °F /  19.4 °C 59.2 °F /  15.1 °C 30 in /  1014.8 hPa West 9.2 mph /  14.8 km/h 9.2 mph /  14.8 km/h 76 % 0.05 in /  1.3 mm
19:12 66.4 °F /  19.1 °C 58.6 °F /  14.8 °C 30 in /  1014.8 hPa SW 6.9 mph /  11.1 km/h 6.9 mph /  11.1 km/h 76 % 0.05 in /  1.3 mm
19:17 66.6 °F /  19.2 °C 59.2 °F /  15.1 °C 30 in /  1014.8 hPa West 2.3 mph /  3.7 km/h 2.3 mph /  3.7 km/h 77 % 0.13 in /  3.3 mm
19:22 66.7 °F /  19.3 °C 60.1 °F /  15.6 °C 30 in /  1015.8 hPa NNE 2.3 mph /  3.7 km/h 2.3 mph /  3.7 km/h 79 % 0.13 in /  3.3 mm
19:27 66.7 °F /  19.3 °C 60.4 °F /  15.8 °C 30 in /  1015.8 hPa NE 3.5 mph /  5.6 km/h 3.5 mph /  5.6 km/h 80 % 0.13 in /  3.3 mm
19:32 67.1 °F /  19.5 °C 61.2 °F /  16.2 °C 30 in /  1015.8 hPa WNW 1.4 mph /  2.3 km/h   81 % 0.17 in /  4.3 mm
19:37 66.9 °F /  19.4 °C 60.4 °F /  15.8 °C 29.9 in /  1013.8 hPa WNW 1.4 mph /  2.3 km/h 1.4 mph /  2.3 km/h 80 % 0.17 in /  4.3 mm
19:42 66.9 °F /  19.4 °C 61.2 °F /  16.2 °C 29.9 in /  1013.8 hPa NE 2.3 mph /  3.7 km/h 2.3 mph /  3.7 km/h 82 % 0.21 in /  5.3 mm
19:47 66.9 °F /  19.4 °C 61.5 °F /  16.4 °C 29.9 in /  1013.8 hPa NNE 4.9 mph /  7.9 km/h 4.9 mph /  7.9 km/h 83 % 0.21 in /  5.3 mm
19:52 66.7 °F /  19.3 °C 61.3 °F /  16.3 °C 29.9 in /  1013.8 hPa ENE 5.8 mph /  9.3 km/h 5.8 mph /  9.3 km/h 83 % 0.21 in /  5.3 mm
19:57 66.7 °F /  19.3 °C 61.7 °F /  16.5 °C 29.9 in /  1013.8 hPa NE 5.8 mph /  9.3 km/h 5.8 mph /  9.3 km/h 84 % 0.21 in /  5.3 mm
20:02 66.4 °F /  19.1 °C 61.3 °F /  16.3 °C 29.9 in /  1013.8 hPa NNE 8.1 mph /  13.0 km/h 8.1 mph /  13.0 km/h 84 % 0.16 in /  4.1 mm
20:07 66.9 °F /  19.4 °C 62.2 °F /  16.8 °C 29.9 in /  1013.8 hPa ENE 4.6 mph /  7.4 km/h 4.6 mph /  7.4 km/h 85 % 0.16 in /  4.1 mm
20:12 66.6 °F /  19.2 °C 62.2 °F /  16.8 °C 29.9 in /  1013.8 hPa WNW 4.6 mph /  7.4 km/h 4.6 mph /  7.4 km/h 86 % 0.16 in /  4.1 mm
20:15 65.7 °F /  18.7 °C 63.3 °F /  17.4 °C 30 in /  1015.8 hPa Calm     92 % 0 in /  0.0 mm
20:17 66.7 °F /  19.3 °C 62.8 °F /  17.1 °C 29.9 in /  1013.8 hPa North 5.8 mph /  9.3 km/h 5.8 mph /  9.3 km/h 87 % 0.08 in /  2.0 mm
20:22 66.7 °F /  19.3 °C 62.4 °F /  16.9 °C 29.9 in /  1013.8 hPa SW 2.9 mph /  4.7 km/h 2.9 mph /  4.7 km/h 86 % 0.08 in /  2.0 mm
20:25 65.7 °F /  18.7 °C 63.3 °F /  17.4 °C 30 in /  1015.8 hPa Calm     92 % 0 in /  0.0 mm
20:27 66.9 °F /  19.4 °C 63 °F /  17.2 °C 29.9 in /  1013.8 hPa ENE 2.3 mph /  3.7 km/h 2.3 mph /  3.7 km/h 87 % 0.08 in /  2.0 mm
20:32 66.9 °F /  19.4 °C 63 °F /  17.2 °C 29.9 in /  1013.8 hPa ENE 1.2 mph /  1.9 km/h   87 % 0.04 in /  1.0 mm
20:35 65.5 °F /  18.6 °C 63.1 °F /  17.3 °C 30 in /  1015.8 hPa Calm     92 % 0 in /  0.0 mm
20:37 67.1 °F /  19.5 °C 63.1 °F /  17.3 °C 29.9 in /  1012.8 hPa SW 2.6 mph /  4.2 km/h 2.6 mph /  4.2 km/h 87 % 0.04 in /  1.0 mm
20:42 66.9 °F /  19.4 °C 63 °F /  17.2 °C 29.9 in /  1012.8 hPa SW 2.3 mph /  3.7 km/h   87 % 0 in /  0.0 mm
20:45 65.3 °F /  18.5 °C 63 °F /  17.2 °C 30 in /  1015.8 hPa Calm     92 % 0 in /  0.0 mm
20:47 66.9 °F /  19.4 °C 62.6 °F /  17.0 °C 29.9 in /  1012.8 hPa WSW 2.3 mph /  3.7 km/h 2.3 mph /  3.7 km/h 86 % 0 in /  0.0 mm
20:52 66.9 °F /  19.4 °C 62.6 °F /  17.0 °C 29.9 in /  1013.8 hPa SW 2.9 mph /  4.7 km/h 2.9 mph /  4.7 km/h 86 % 0 in /  0.0 mm
20:55 65.1 °F /  18.4 °C 62.8 °F /  17.1 °C 30 in /  1015.8 hPa Calm     92 % 0 in /  0.0 mm
20:57 66.7 °F /  19.3 °C 62.8 °F /  17.1 °C 29.9 in /  1013.8 hPa SW 2.3 mph /  3.7 km/h 2.3 mph /  3.7 km/h 87 % 0 in /  0.0 mm
21:02 66.6 °F /  19.2 °C 62.6 °F /  17.0 °C 29.9 in /  1013.8 hPa SW 2.3 mph /  3.7 km/h 2.3 mph /  3.7 km/h 87 % 0 in /  0.0 mm
21:05 65.1 °F /  18.4 °C 62.8 °F /  17.1 °C 30 in /  1016.8 hPa Calm     92 % 0 in /  0.0 mm
21:07 66.4 °F /  19.1 °C 62.4 °F /  16.9 °C 29.9 in /  1013.8 hPa SW 1.2 mph /  1.9 km/h 1.2 mph /  1.9 km/h 87 % 0 in /  0.0 mm
21:12 66.4 °F /  19.1 °C 62.1 °F /  16.7 °C 29.9 in /  1013.8 hPa WSW 4.6 mph /  7.4 km/h 4.6 mph /  7.4 km/h 86 % 0 in /  0.0 mm
21:15 64.9 °F /  18.3 °C 63 °F /  17.2 °C 30 in /  1016.8 hPa Calm     93 % 0 in /  0.0 mm
21:17 66.4 °F /  19.1 °C 62.4 °F /  16.9 °C 29.9 in /  1013.8 hPa West 2.3 mph /  3.7 km/h 2.3 mph /  3.7 km/h 87 % 0 in /  0.0 mm
21:22 66.2 °F /  19.0 °C 62.2 °F /  16.8 °C 29.9 in /  1013.8 hPa SW 3.6 mph /  5.8 km/h 3.6 mph /  5.8 km/h 87 % 0 in /  0.0 mm
21:25 64.9 °F /  18.3 °C 63 °F /  17.2 °C 30 in /  1015.8 hPa Calm     93 % 0 in /  0.0 mm
21:27 66.2 °F /  19.0 °C 61.9 °F /  16.6 °C 29.9 in /  1013.8 hPa SW 3.1 mph /  5.0 km/h 3.1 mph /  5.0 km/h 86 % 0 in /  0.0 mm
21:28 66.2 °F /  19.0 °C 61.9 °F /  16.6 °C 29.9 in /  1013.8 hPa West 2.3 mph /  3.7 km/h 2.6 mph /  4.2 km/h 86 % 0 in /  0.0 mm
21:33 66.4 °F /  19.1 °C 62.4 °F /  16.9 °C 29.9 in /  1013.8 hPa NNE 1.2 mph /  1.9 km/h   87 % 0 in /  0.0 mm
21:35 64.9 °F /  18.3 °C 63 °F /  17.2 °C 30 in /  1015.8 hPa Calm     93 % 0 in /  0.0 mm
21:38 66.4 °F /  19.1 °C 62.8 °F /  17.1 °C 29.9 in /  1013.8 hPa NNE 2.3 mph /  3.7 km/h 2.3 mph /  3.7 km/h 88 % 0 in /  0.0 mm
21:43 66.4 °F /  19.1 °C 62.8 °F /  17.1 °C 29.9 in /  1013.8 hPa NNE 2.3 mph /  3.7 km/h 2.3 mph /  3.7 km/h 88 % 0 in /  0.0 mm
21:45 64.9 °F /  18.3 °C 63 °F /  17.2 °C 30 in /  1015.8 hPa Calm     93 % 0 in /  0.0 mm
21:48 66.4 °F /  19.1 °C 63 °F /  17.2 °C 29.9 in /  1013.8 hPa ENE 2.3 mph /  3.7 km/h 2.3 mph /  3.7 km/h 89 % 0 in /  0.0 mm
21:53 66.2 °F /  19.0 °C 63 °F /  17.2 °C 30 in /  1014.8 hPa NE 2.3 mph /  3.7 km/h 2.4 mph /  3.9 km/h 89 % 0 in /  0.0 mm
21:55 64.8 °F /  18.2 °C 62.8 °F /  17.1 °C 30 in /  1015.8 hPa Calm     93 % 0 in /  0.0 mm
21:58 66.4 °F /  19.1 °C 63 °F /  17.2 °C 30 in /  1014.8 hPa NE 3.5 mph /  5.6 km/h 3.5 mph /  5.6 km/h 89 % 0 in /  0.0 mm
22:03 66.4 °F /  19.1 °C 63 °F /  17.2 °C 30 in /  1014.8 hPa Calm     89 % 0 in /  0.0 mm
22:05 64.6 °F /  18.1 °C 62.4 °F /  16.9 °C 30 in /  1015.8 hPa Calm     93 % 0 in /  0.0 mm
22:08 66.4 °F /  19.1 °C 63 °F /  17.2 °C 30 in /  1015.8 hPa Calm     89 % 0 in /  0.0 mm
22:13 66.4 °F /  19.1 °C 63 °F /  17.2 °C 30 in /  1015.8 hPa NE 1.6 mph /  2.6 km/h   89 % 0 in /  0.0 mm
22:15 64.4 °F /  18.0 °C 62.2 °F /  16.8 °C 30 in /  1015.8 hPa Calm     93 % 0 in /  0.0 mm
22:18 66.6 °F /  19.2 °C 63.1 °F /  17.3 °C 30 in /  1015.8 hPa ENE 2.3 mph /  3.7 km/h 2.3 mph /  3.7 km/h 89 % 0 in /  0.0 mm
22:23 66.6 °F /  19.2 °C 63.1 °F /  17.3 °C 30 in /  1015.8 hPa NE 1.2 mph /  1.9 km/h   89 % 0 in /  0.0 mm
22:25 64.4 °F /  18.0 °C 62.2 °F /  16.8 °C 30 in /  1014.8 hPa Calm     93 % 0 in /  0.0 mm
22:28 66.6 °F /  19.2 °C 63.1 °F /  17.3 °C 30 in /  1015.8 hPa ENE 2.3 mph /  3.7 km/h 2.3 mph /  3.7 km/h 89 % 0 in /  0.0 mm
22:33 66.6 °F /  19.2 °C 63.5 °F /  17.5 °C 30 in /  1015.8 hPa NE 2.3 mph /  3.7 km/h 2.3 mph /  3.7 km/h 90 % 0 in /  0.0 mm
22:35 64.4 °F /  18.0 °C 62.2 °F /  16.8 °C 30 in /  1014.8 hPa Calm     93 % 0 in /  0.0 mm
22:38 66.4 °F /  19.1 °C 63.3 °F /  17.4 °C 30 in /  1015.8 hPa Calm     90 % 0 in /  0.0 mm
22:43 66.4 °F /  19.1 °C 63 °F /  17.2 °C 30 in /  1015.8 hPa SW 2.3 mph /  3.7 km/h 2.3 mph /  3.7 km/h 89 % 0 in /  0.0 mm
22:45 64.4 °F /  18.0 °C 62.2 °F /  16.8 °C 30 in /  1014.8 hPa Calm     93 % 0 in /  0.0 mm
22:48 66.2 °F /  19.0 °C 63 °F /  17.2 °C 30 in /  1015.8 hPa SW 2.3 mph /  3.7 km/h 2.3 mph /  3.7 km/h 89 % 0 in /  0.0 mm
22:53 66.2 °F /  19.0 °C 63 °F /  17.2 °C 30 in /  1015.8 hPa WSW 2.3 mph /  3.7 km/h 2.3 mph /  3.7 km/h 89 % 0 in /  0.0 mm
22:55 64.4 °F /  18.0 °C 62.2 °F /  16.8 °C 30 in /  1014.8 hPa Calm     93 % 0 in /  0.0 mm
22:58 66.2 °F /  19.0 °C 63 °F /  17.2 °C 30 in /  1015.8 hPa Calm     89 % 0 in /  0.0 mm
23:03 66.2 °F /  19.0 °C 63.1 °F /  17.3 °C 30 in /  1015.8 hPa Calm     90 % 0 in /  0.0 mm
23:05 64 °F /  17.8 °C 62.2 °F /  16.8 °C 29.9 in /  1013.8 hPa Calm     94 % 0 in /  0.0 mm
23:08 66.2 °F /  19.0 °C 63.1 °F /  17.3 °C 30 in /  1015.8 hPa WSW 1.6 mph /  2.6 km/h 1.6 mph /  2.6 km/h 90 % 0 in /  0.0 mm
23:13 66.2 °F /  19.0 °C 63 °F /  17.2 °C 30 in /  1015.8 hPa SW 2.3 mph /  3.7 km/h 2.3 mph /  3.7 km/h 89 % 0 in /  0.0 mm
23:15 63.7 °F /  17.6 °C 61.5 °F /  16.4 °C 29.9 in /  1013.8 hPa Calm     93 % 0 in /  0.0 mm
23:18 66 °F /  18.9 °C 63 °F /  17.2 °C 30 in /  1015.8 hPa West 2.2 mph /  3.5 km/h   90 % 0 in /  0.0 mm
23:23 66.2 °F /  19.0 °C 63 °F /  17.2 °C 30 in /  1015.8 hPa SW 2.3 mph /  3.7 km/h 2.3 mph /  3.7 km/h 89 % 0 in /  0.0 mm
23:25 63.5 °F /  17.5 °C 61.3 °F /  16.3 °C 30 in /  1014.8 hPa Calm     93 % 0 in /  0.0 mm
23:28 66.2 °F /  19.0 °C 63.1 °F /  17.3 °C 30 in /  1015.8 hPa Calm     90 % 0 in /  0.0 mm
23:33 66 °F /  18.9 °C 63.3 °F /  17.4 °C 30 in /  1015.8 hPa Calm     91 % 0 in /  0.0 mm
23:35 63.3 °F /  17.4 °C 61.3 °F /  16.3 °C 29.9 in /  1013.8 hPa SW 1 mph /  1.6 km/h 2 mph /  3.2 km/h 93 % 0 in /  0.0 mm
23:38 66.2 °F /  19.0 °C 63.1 °F /  17.3 °C 30 in /  1015.8 hPa Calm     90 % 0 in /  0.0 mm
23:43 66.2 °F /  19.0 °C 63.1 °F /  17.3 °C 30 in /  1015.8 hPa Calm     90 % 0 in /  0.0 mm
23:45 63.1 °F /  17.3 °C 61.2 °F /  16.2 °C 29.9 in /  1013.8 hPa SW 1 mph /  1.6 km/h 2 mph /  3.2 km/h 93 % 0 in /  0.0 mm
23:48 66.2 °F /  19.0 °C 63.1 °F /  17.3 °C 30 in /  1015.8 hPa Calm     90 % 0 in /  0.0 mm
23:53 66 °F /  18.9 °C 63.3 °F /  17.4 °C 30 in /  1015.8 hPa Calm     91 % 0 in /  0.0 mm
23:55 63.1 °F /  17.3 °C 61.3 °F /  16.3 °C 30 in /  1014.8 hPa Calm   1 mph /  1.6 km/h 94 % 0 in /  0.0 mm
23:58 66.2 °F /  19.0 °C 63.1 °F /  17.3 °C 30 in /  1015.8 hPa Calm     90 % 0 in /  0.0 mm
Meteo Sesrovires
Elogis d' Weather Underground - 3.75 mb

Guio original per  Jim McMurry - jmcmurry@mwt.net Adaptat per a la plantilla per  Wim van der Kuil - Leuven-Template.eu

Trobareu la nostra informacio del temps tambe a:

Weather Underground

AWEKAS